Time;durP1;ratioP1;P1;durP2;ratioP2;P2;SDS_P1;SDS_P2;PMS_P1;PMS_P2;Temp;Humidity;BMP_temperature;BMP_pressure;BME280_temperature;BME280_humidity;BME280_pressure;Samples;Min_cycle;Max_cycle;Signal;HPM_P1;HPM_P2
2021/07/17 00:01:08;;;;;;;;;15.75;14.00;;;;;17.56;66.30;102219.66;5010178;28;45845;-69
2021/07/17 00:03:33;;;;;;;;;17.00;14.00;;;;;17.52;66.60;102213.78;5008734;28;45675;-69
2021/07/17 00:05:58;;;;;;;;;10.50;10.50;;;;;17.51;66.59;102213.97;5009043;28;45720;-70
2021/07/17 00:08:24;;;;;;;;;18.25;12.50;;;;;17.49;67.11;102215.94;5006549;28;45772;-67
2021/07/17 00:10:50;;;;;;;;;18.00;14.25;;;;;17.47;67.08;102207.25;5017316;28;45519;-68
2021/07/17 00:13:17;;;;;;;;;16.75;14.00;;;;;17.44;67.12;102212.91;5022253;28;45397;-67
2021/07/17 00:15:43;;;;;;;;;14.00;12.00;;;;;17.41;67.29;102212.22;5022634;28;45441;-68
2021/07/17 00:18:08;;;;;;;;;15.50;13.25;;;;;17.38;67.18;102209.88;5015403;28;45817;-73
2021/07/17 00:20:34;;;;;;;;;15.25;13.50;;;;;17.37;67.24;102215.38;5008920;28;46275;-69
2021/07/17 00:22:59;;;;;;;;;13.50;12.75;;;;;17.36;67.68;102213.72;5010414;28;45531;-68
2021/07/17 00:25:25;;;;;;;;;13.00;12.00;;;;;17.32;67.03;102209.66;5008072;28;45532;-68
2021/07/17 00:27:51;;;;;;;;;16.25;14.50;;;;;17.30;67.18;102211.66;5015124;28;45493;-69
2021/07/17 00:30:18;;;;;;;;;15.00;14.00;;;;;17.28;67.47;102219.81;5015398;28;46425;-69
2021/07/17 00:32:44;;;;;;;;;17.75;14.25;;;;;17.24;67.39;102217.66;5008083;28;45480;-67
2021/07/17 00:35:10;;;;;;;;;17.00;14.50;;;;;17.20;67.61;102209.91;4988905;28;45896;-68
2021/07/17 00:37:35;;;;;;;;;17.00;14.50;;;;;17.19;67.79;102212.75;5009505;28;45617;-67
2021/07/17 00:40:02;;;;;;;;;19.00;13.75;;;;;17.16;67.58;102210.38;5020281;28;46152;-68
2021/07/17 00:42:30;;;;;;;;;17.25;14.50;;;;;17.14;68.05;102209.72;5013667;28;45481;-73
2021/07/17 00:44:55;;;;;;;;;14.25;14.25;;;;;17.11;68.16;102212.69;5002021;28;45568;-73
2021/07/17 00:47:21;;;;;;;;;16.00;15.00;;;;;17.09;68.03;102210.19;5005806;28;45433;-68
2021/07/17 00:49:47;;;;;;;;;16.00;13.50;;;;;17.07;68.16;102208.69;5013319;28;47066;-73
2021/07/17 00:52:12;;;;;;;;;17.75;15.00;;;;;17.03;67.91;102210.81;5013343;28;45546;-73
2021/07/17 00:54:40;;;;;;;;;16.25;14.00;;;;;17.01;68.51;102209.28;5009761;28;46045;-67
2021/07/17 00:57:06;;;;;;;;;19.50;14.00;;;;;16.97;68.47;102206.09;5012609;28;45468;-67
2021/07/17 00:59:35;;;;;;;;;18.00;12.50;;;;;16.95;68.34;102211.59;5011868;28;45465;-67
2021/07/17 01:02:03;;;;;;;;;17.00;13.00;;;;;16.93;68.41;102213.56;5002858;28;45476;-66
2021/07/17 01:04:28;;;;;;;;;17.75;14.00;;;;;16.90;68.86;102218.41;5011045;28;45460;-66
2021/07/17 01:06:57;;;;;;;;;13.25;12.50;;;;;16.88;68.52;102215.88;5015377;28;45688;-68
2021/07/17 01:09:22;;;;;;;;;19.25;15.25;;;;;16.86;68.74;102211.69;5006179;28;48238;-68
2021/07/17 01:11:48;;;;;;;;;19.25;13.00;;;;;16.84;68.84;102211.84;5008033;28;45434;-67
2021/07/17 01:14:13;;;;;;;;;15.75;12.00;;;;;16.82;68.77;102213.84;5012474;28;45476;-69
2021/07/17 01:16:39;;;;;;;;;15.75;10.00;;;;;16.79;68.84;102216.81;5014545;28;45806;-69
2021/07/17 01:19:08;;;;;;;;;16.50;13.50;;;;;16.77;69.11;102214.25;5011584;28;46012;-68
2021/07/17 01:21:34;;;;;;;;;16.50;13.75;;;;;16.76;69.66;102211.72;5007914;28;45614;-70
2021/07/17 01:24:00;;;;;;;;;15.75;12.25;;;;;16.74;69.43;102211.03;5008005;28;45528;-70
2021/07/17 01:26:25;;;;;;;;;16.25;13.25;;;;;16.73;69.56;102218.22;5006036;28;45493;-70
2021/07/17 01:28:51;;;;;;;;;21.25;17.00;;;;;16.69;69.36;102213.34;4994717;28;45611;-68
2021/07/17 01:31:18;;;;;;;;;14.00;13.50;;;;;16.68;69.64;102211.69;5017536;28;45561;-67
2021/07/17 01:33:44;;;;;;;;;17.00;13.25;;;;;16.66;69.57;102210.97;5016120;28;45567;-68
2021/07/17 01:36:09;;;;;;;;;18.00;15.25;;;;;16.64;69.94;102207.63;5008262;28;45844;-70
2021/07/17 01:38:34;;;;;;;;;16.50;14.75;;;;;16.63;69.82;102205.97;5009749;28;45743;-68
2021/07/17 01:41:00;;;;;;;;;20.25;17.75;;;;;16.60;69.99;102201.78;5003139;28;45533;-69
2021/07/17 01:43:25;;;;;;;;;13.50;12.25;;;;;16.59;69.85;102204.56;5008102;28;45556;-69
2021/07/17 01:45:58;;;;;;;;;17.25;15.00;;;;;16.55;70.36;102204.91;5009978;28;45501;-68
2021/07/17 01:48:23;;;;;;;;;19.75;15.00;;;;;16.52;70.22;102199.03;5011811;28;46228;-66
2021/07/17 01:50:49;;;;;;;;;17.25;14.00;;;;;16.49;70.13;102199.31;5010063;28;45478;-66
2021/07/17 01:53:14;;;;;;;;;18.50;16.75;;;;;16.45;70.44;102196.13;5015463;28;45546;-66
2021/07/17 01:55:40;;;;;;;;;15.25;13.00;;;;;16.45;70.60;102198.78;5008548;28;45500;-68
2021/07/17 01:58:07;;;;;;;;;19.50;14.50;;;;;16.42;70.48;102204.44;5015552;28;46535;-67
2021/07/17 02:00:32;;;;;;;;;17.00;15.75;;;;;16.39;70.67;102207.41;5010191;28;45529;-66
2021/07/17 02:02:58;;;;;;;;;17.50;12.00;;;;;16.37;70.87;102196.06;5015863;28;45496;-68
2021/07/17 02:05:24;;;;;;;;;16.75;15.50;;;;;16.34;70.88;102201.69;4998307;28;45447;-70
2021/07/17 02:07:50;;;;;;;;;18.75;15.50;;;;;16.31;70.66;102207.31;5005951;28;45483;-67
2021/07/17 02:10:19;;;;;;;;;20.00;16.00;;;;;16.27;71.20;102209.47;5021714;28;45657;-70
2021/07/17 02:13:02;;;;;;;;;15.25;14.25;;;;;16.26;71.32;102204.28;5016146;28;45570;-67
2021/07/17 02:15:30;;;;;;;;;19.50;16.25;;;;;16.22;71.22;102198.41;5010448;28;45469;-67
2021/07/17 02:17:56;;;;;;;;;19.25;16.00;;;;;16.19;71.81;102201.38;5012497;28;45500;-66
2021/07/17 02:20:21;;;;;;;;;17.75;14.25;;;;;16.16;71.76;102196.34;4998339;28;45498;-70
2021/07/17 02:22:47;;;;;;;;;17.00;15.75;;;;;16.14;72.00;102200.97;5005207;28;45470;-67
2021/07/17 02:25:12;;;;;;;;;25.50;16.00;;;;;16.15;72.01;102201.81;5009553;28;45488;-66
2021/07/17 02:27:37;;;;;;;;;16.50;13.00;;;;;16.12;72.00;102197.63;5010557;28;45893;-67
2021/07/17 02:30:04;;;;;;;;;19.00;13.50;;;;;16.10;71.80;102188.94;5016252;28;45394;-65
2021/07/17 02:32:30;;;;;;;;;18.00;13.00;;;;;16.08;72.00;102201.59;5015798;28;45442;-70
2021/07/17 02:34:55;;;;;;;;;17.50;11.50;;;;;16.06;72.29;102193.72;5014071;28;45429;-68
2021/07/17 02:37:21;;;;;;;;;19.75;16.50;;;;;16.03;72.36;102191.38;5011350;28;47255;-67
2021/07/17 02:39:46;;;;;;;;;18.25;17.00;;;;;16.02;72.34;102191.50;5012419;28;45653;-66
2021/07/17 02:42:12;;;;;;;;;22.00;16.75;;;;;15.99;72.77;102197.97;5016621;28;45491;-71
2021/07/17 02:44:37;;;;;;;;;21.75;19.00;;;;;15.99;72.50;102203.31;5010969;28;45406;-71
2021/07/17 02:47:03;;;;;;;;;22.50;20.00;;;;;15.97;72.57;102199.94;5010608;28;45520;-66
2021/07/17 02:49:29;;;;;;;;;26.00;22.25;;;;;15.95;72.75;102196.63;5011567;28;45462;-67
2021/07/17 02:51:55;;;;;;;;;26.50;24.50;;;;;15.93;72.65;102198.59;5012853;28;45534;-66
2021/07/17 02:54:21;;;;;;;;;26.25;21.75;;;;;15.90;72.94;102189.06;5011053;28;45535;-67
2021/07/17 02:56:46;;;;;;;;;22.50;18.50;;;;;15.90;72.80;102193.56;5007863;28;46447;-70
2021/07/17 02:59:12;;;;;;;;;18.50;17.50;;;;;15.87;73.12;102188.50;5002495;28;45689;-67
2021/07/17 03:01:37;;;;;;;;;19.75;16.25;;;;;15.85;72.86;102186.00;5009116;28;45599;-71
2021/07/17 03:04:02;;;;;;;;;27.00;20.75;;;;;15.83;73.16;102195.16;5014923;28;45497;-66
2021/07/17 03:06:28;;;;;;;;;19.25;16.00;;;;;15.82;73.25;102201.44;5021292;28;45506;-67
2021/07/17 03:08:53;;;;;;;;;19.50;15.50;;;;;15.79;73.38;102196.41;5009594;28;45445;-67
2021/07/17 03:11:18;;;;;;;;;17.50;15.50;;;;;15.76;73.32;102202.88;5011302;28;45474;-66
2021/07/17 03:13:44;;;;;;;;;20.75;16.00;;;;;15.75;73.34;102203.03;5010172;28;45477;-67
2021/07/17 03:16:09;;;;;;;;;20.50;16.50;;;;;15.75;73.53;102208.34;5009813;28;46107;-71
2021/07/17 03:18:34;;;;;;;;;25.25;17.50;;;;;15.74;73.78;102209.34;5013689;28;45458;-70
2021/07/17 03:21:00;;;;;;;;;17.00;15.25;;;;;15.74;73.50;102206.69;5014751;28;45363;-71
2021/07/17 03:23:25;;;;;;;;;18.75;16.00;;;;;15.73;73.59;102202.34;5015844;28;45421;-66
2021/07/17 03:25:51;;;;;;;;;20.75;16.50;;;;;15.73;73.61;102202.34;5014419;28;46976;-66
2021/07/17 03:28:16;;;;;;;;;18.50;16.25;;;;;15.73;74.00;102202.34;5007863;28;45370;-66
2021/07/17 03:30:42;;;;;;;;;16.75;15.25;;;;;15.72;73.94;102195.31;5019117;28;45402;-66
2021/07/17 03:33:07;;;;;;;;;15.75;14.00;;;;;15.69;73.93;102199.97;5011927;28;45480;-67
2021/07/17 03:35:32;;;;;;;;;24.25;18.75;;;;;15.68;73.85;102208.94;5013354;28;45840;-67
2021/07/17 03:37:58;;;;;;;;;22.50;17.50;;;;;15.67;73.91;102209.88;5010483;28;45510;-67
2021/07/17 03:40:23;;;;;;;;;20.25;17.75;;;;;15.66;74.10;102208.22;5010541;28;45584;-67
2021/07/17 03:42:49;;;;;;;;;20.25;17.75;;;;;15.64;74.00;102199.53;5008825;28;45565;-71
2021/07/17 03:45:14;;;;;;;;;20.50;15.00;;;;;15.63;74.13;102200.53;5015107;28;46188;-71
2021/07/17 03:47:40;;;;;;;;;16.50;13.75;;;;;15.61;74.26;102194.50;5015341;28;45442;-66
2021/07/17 03:50:06;;;;;;;;;20.75;17.75;;;;;15.61;74.41;102199.84;5015592;28;45738;-71
2021/07/17 03:52:32;;;;;;;;;17.25;16.25;;;;;15.57;74.41;102195.78;5009717;28;45466;-67
2021/07/17 03:54:57;;;;;;;;;18.75;15.00;;;;;15.56;74.40;102199.44;5010111;28;47191;-70
2021/07/17 03:57:23;;;;;;;;;26.00;21.50;;;;;15.54;74.45;102198.75;5014975;28;45571;-66
2021/07/17 03:59:48;;;;;;;;;22.75;18.00;;;;;15.52;74.69;102206.03;5013579;28;45625;-68
2021/07/17 04:02:13;;;;;;;;;23.00;19.00;;;;;15.51;74.79;102198.22;5014905;28;45552;-70
2021/07/17 04:04:41;;;;;;;;;20.75;16.75;;;;;15.49;74.59;102207.16;5019147;28;47125;-66
2021/07/17 04:07:07;;;;;;;;;19.25;16.50;;;;;15.47;74.70;102209.13;5013401;28;45748;-71
2021/07/17 04:09:32;;;;;;;;;23.00;18.50;;;;;15.47;74.74;102208.31;5012353;28;45760;-66
2021/07/17 04:11:58;;;;;;;;;22.00;17.00;;;;;15.46;74.91;102209.31;5012659;28;45599;-68
2021/07/17 04:14:23;;;;;;;;;25.75;21.25;;;;;15.44;74.93;102208.59;5008755;28;45458;-66
2021/07/17 04:16:48;;;;;;;;;20.25;17.25;;;;;15.43;74.93;102207.75;5014003;28;45630;-66
2021/07/17 04:19:14;;;;;;;;;22.00;17.75;;;;;15.42;74.98;102203.41;5013514;28;45512;-67
2021/07/17 04:21:39;;;;;;;;;22.00;17.50;;;;;15.44;74.92;102213.94;5015275;28;45736;-67
2021/07/17 04:24:05;;;;;;;;;18.50;14.50;;;;;15.43;75.37;102201.56;5014550;28;45508;-67
2021/07/17 04:26:31;;;;;;;;;24.00;17.50;;;;;15.44;75.12;102205.94;5012448;28;45397;-66
2021/07/17 04:28:56;;;;;;;;;20.25;17.50;;;;;15.45;75.53;102213.78;5013056;28;45499;-67
2021/07/17 04:31:22;;;;;;;;;23.50;18.00;;;;;15.47;75.09;102202.97;5011892;28;45512;-68
2021/07/17 04:33:47;;;;;;;;;22.50;17.25;;;;;15.47;74.99;102202.97;5011953;28;45527;-67
2021/07/17 04:36:12;;;;;;;;;19.50;16.75;;;;;15.49;75.08;102209.00;5019118;28;45460;-67
2021/07/17 04:38:39;;;;;;;;;23.50;17.50;;;;;15.52;75.39;102213.19;5014039;28;45543;-67
2021/07/17 04:41:04;;;;;;;;;26.75;20.75;;;;;15.52;75.85;102205.19;5018920;28;45530;-72
2021/07/17 04:43:30;;;;;;;;;17.50;16.00;;;;;15.56;75.81;102219.94;5015433;28;45722;-66
2021/07/17 04:45:55;;;;;;;;;25.75;22.00;;;;;15.57;75.78;102217.09;5021046;28;45440;-66
2021/07/17 04:48:21;;;;;;;;;20.25;17.00;;;;;15.60;75.14;102219.50;5018326;28;45498;-71
2021/07/17 04:50:46;;;;;;;;;22.00;18.75;;;;;15.62;75.15;102222.81;5014366;28;45837;-67
2021/07/17 04:53:11;;;;;;;;;27.25;18.00;;;;;15.64;75.00;102218.19;5012819;28;45453;-72
2021/07/17 04:55:37;;;;;;;;;23.75;21.00;;;;;15.67;75.18;102225.06;5014766;28;45404;-67
2021/07/17 04:58:02;;;;;;;;;20.50;17.75;;;;;15.67;75.27;102231.22;5019130;28;45686;-65
2021/07/17 05:00:28;;;;;;;;;28.50;19.00;;;;;15.69;76.07;102229.28;5021363;28;45572;-67
2021/07/17 05:02:55;;;;;;;;;21.00;18.00;;;;;15.74;75.12;102228.84;5007690;28;46172;-67
2021/07/17 05:05:22;;;;;;;;;28.50;17.75;;;;;15.80;75.49;102232.75;5011462;28;46030;-66
2021/07/17 05:07:49;;;;;;;;;21.25;18.75;;;;;15.86;74.75;102230.34;5012232;28;45517;-71
2021/07/17 05:10:17;;;;;;;;;19.75;17.50;;;;;15.90;75.06;102233.56;5013856;28;45537;-67
2021/07/17 05:12:42;;;;;;;;;23.00;18.75;;;;;15.99;74.72;102226.47;5023233;28;46232;-70
2021/07/17 05:15:09;;;;;;;;;22.75;19.75;;;;;16.06;75.11;102232.91;5013363;28;45362;-72
2021/07/17 05:17:35;;;;;;;;;20.25;17.75;;;;;16.09;75.24;102230.75;5015322;28;45540;-66
2021/07/17 05:20:01;;;;;;;;;24.50;18.00;;;;;16.13;74.31;102232.16;5010527;28;45483;-71
2021/07/17 05:22:26;;;;;;;;;20.25;17.25;;;;;16.19;74.56;102225.38;5015259;28;46040;-68
2021/07/17 05:24:52;;;;;;;;;24.00;16.25;;;;;16.24;74.10;102225.75;5009553;28;45587;-70
2021/07/17 05:27:17;;;;;;;;;26.25;19.00;;;;;16.29;74.30;102227.97;5022887;28;45514;-71
2021/07/17 05:29:43;;;;;;;;;23.75;20.50;;;;;16.34;73.99;102231.03;5013937;28;45497;-67
2021/07/17 05:32:08;;;;;;;;;20.75;19.75;;;;;16.40;73.64;102229.59;5017405;28;46308;-71
2021/07/17 05:34:34;;;;;;;;;25.25;21.00;;;;;16.44;73.23;102222.94;5012280;28;45624;-71
2021/07/17 05:37:00;;;;;;;;;21.00;17.75;;;;;16.50;73.67;102228.53;5012531;28;45547;-67
2021/07/17 05:39:25;;;;;;;;;23.50;19.50;;;;;16.54;73.17;102219.25;5013930;28;45447;-68
2021/07/17 05:41:50;;;;;;;;;19.75;18.75;;;;;16.63;73.51;102221.97;5012069;28;46470;-66
2021/07/17 05:44:16;;;;;;;;;27.50;20.25;;;;;16.69;73.00;102222.22;5010632;28;45544;-66
2021/07/17 05:46:41;;;;;;;;;23.75;20.00;;;;;16.75;72.66;102226.09;5012636;28;45708;-66
2021/07/17 05:49:07;;;;;;;;;21.25;20.50;;;;;16.78;72.68;102225.81;4996964;28;45689;-66
2021/07/17 05:51:32;;;;;;;;;21.00;20.75;;;;;16.83;72.23;102226.19;5004481;28;45969;-71
2021/07/17 05:53:57;;;;;;;;;23.50;18.75;;;;;16.89;72.20;102222.91;5010218;28;45493;-66
2021/07/17 05:56:23;;;;;;;;;18.50;17.00;;;;;16.94;72.14;102223.28;5012687;28;45550;-66
2021/07/17 05:58:48;;;;;;;;;29.50;21.00;;;;;17.01;72.41;102225.31;4994762;28;45396;-66
2021/07/17 06:01:13;;;;;;;;;22.00;19.75;;;;;17.06;72.09;102226.53;5026311;28;47244;-66
2021/07/17 06:03:41;;;;;;;;;24.75;18.00;;;;;17.09;71.63;102220.06;5021730;28;45365;-66
2021/07/17 06:06:07;;;;;;;;;25.25;19.25;;;;;17.14;71.32;102223.09;5017182;28;45588;-68
2021/07/17 06:08:33;;;;;;;;;22.25;20.00;;;;;17.18;71.24;102221.75;5009792;28;45576;-68
2021/07/17 06:10:58;;;;;;;;;24.25;18.50;;;;;17.22;71.02;102224.97;5005527;28;46321;-71
2021/07/17 06:13:23;;;;;;;;;22.25;21.50;;;;;17.27;71.23;102226.16;5013064;28;45465;-66
2021/07/17 06:15:49;;;;;;;;;22.25;18.25;;;;;17.28;71.10;102230.50;5008142;28;61020;-70
2021/07/17 06:18:14;;;;;;;;;21.00;18.75;;;;;17.32;70.67;102225.69;5009169;28;45509;-66
2021/07/17 06:20:39;;;;;;;;;25.50;22.00;;;;;17.40;70.76;102231.91;5019324;28;46965;-67
2021/07/17 06:23:05;;;;;;;;;25.25;18.50;;;;;17.49;71.45;102230.13;5010416;28;45430;-71
2021/07/17 06:25:30;;;;;;;;;21.50;19.50;;;;;17.55;70.48;102234.84;5010149;28;45972;-70
2021/07/17 06:27:56;;;;;;;;;26.25;20.00;;;;;17.59;69.95;102236.22;5007949;28;45782;-64
2021/07/17 06:30:21;;;;;;;;;20.25;19.50;;;;;17.62;69.67;102241.22;5010554;28;45427;-69
2021/07/17 06:32:46;;;;;;;;;25.00;21.50;;;;;17.65;69.88;102241.91;5003452;28;45557;-65
2021/07/17 06:35:12;;;;;;;;;32.75;21.50;;;;;17.68;69.80;102247.78;5003010;28;45597;-69
2021/07/17 06:37:41;;;;;;;;;20.75;18.00;;;;;17.73;70.00;102248.16;4991808;28;45717;-64
2021/07/17 06:40:09;;;;;;;;;24.25;22.00;;;;;17.81;69.89;102252.72;5001299;28;45513;-64
2021/07/17 06:42:42;;;;;;;;;25.00;19.75;;;;;17.88;69.78;102251.09;5008713;28;45738;-66
2021/07/17 06:45:09;;;;;;;;;20.25;18.50;;;;;18.00;69.26;102247.13;5008846;28;45496;-64
2021/07/17 06:47:34;;;;;;;;;25.50;21.75;;;;;18.13;69.12;102249.34;5003955;28;45545;-67
2021/07/17 06:50:01;;;;;;;;;29.00;21.50;;;;;18.22;69.43;102253.72;5007207;28;46126;-67
2021/07/17 06:52:26;;;;;;;;;30.25;23.00;;;;;18.29;67.99;102247.69;5004683;28;45668;-67
2021/07/17 06:54:51;;;;;;;;;23.75;21.00;;;;;18.32;68.68;102242.84;5005876;28;45451;-66
2021/07/17 06:57:17;;;;;;;;;22.50;21.25;;;;;18.46;68.47;102246.72;5006576;28;45495;-69
2021/07/17 06:59:42;;;;;;;;;24.75;21.00;;;;;18.58;67.82;102247.25;5006343;28;46446;-69
2021/07/17 07:02:07;;;;;;;;;27.00;24.00;;;;;18.73;67.74;102245.59;5002525;28;45573;-68
2021/07/17 07:04:33;;;;;;;;;26.75;21.50;;;;;18.91;67.22;102246.28;5003327;28;45783;-66
2021/07/17 07:06:58;;;;;;;;;28.75;22.00;;;;;19.18;66.92;102243.44;5006447;28;46074;-68
2021/07/17 07:09:24;;;;;;;;;27.00;22.75;;;;;19.44;66.05;102244.06;5007233;28;47186;-69
2021/07/17 07:11:49;;;;;;;;;26.00;19.25;;;;;19.72;66.00;102249.84;5005631;28;45449;-67
2021/07/17 07:14:14;;;;;;;;;23.00;20.50;;;;;19.98;64.93;102246.91;5001289;28;45495;-65
2021/07/17 07:16:40;;;;;;;;;24.75;22.25;;;;;20.15;64.71;102249.50;5004592;28;45897;-64
2021/07/17 07:19:05;;;;;;;;;29.25;22.25;;;;;20.24;65.07;102253.81;5005823;28;45618;-67
2021/07/17 07:21:31;;;;;;;;;22.50;21.50;;;;;20.21;62.80;102258.72;5010536;28;45556;-69
2021/07/17 07:23:56;;;;;;;;;27.50;20.00;;;;;20.03;63.79;102259.81;5005652;28;45879;-66
2021/07/17 07:26:22;;;;;;;;;27.00;23.75;;;;;19.93;64.08;102262.69;5003651;28;45740;-66
2021/07/17 07:28:47;;;;;;;;;27.00;23.50;;;;;19.88;64.65;102278.47;5005539;28;45904;-68
2021/07/17 07:31:12;;;;;;;;;19.75;19.50;;;;;19.87;64.41;102273.28;5003276;28;45594;-68
2021/07/17 07:33:38;;;;;;;;;29.25;22.75;;;;;19.86;64.40;102274.31;5006931;28;46437;-66
2021/07/17 07:36:03;;;;;;;;;26.25;21.75;;;;;19.88;64.22;102283.00;5005395;28;45549;-67
2021/07/17 07:38:29;;;;;;;;;23.25;21.25;;;;;19.89;64.62;102285.50;5004527;28;46947;-69
2021/07/17 07:40:54;;;;;;;;;24.50;22.75;;;;;19.87;64.27;102281.31;5006707;28;45583;-64
2021/07/17 07:43:19;;;;;;;;;29.75;20.00;;;;;19.88;64.37;102283.84;5003498;28;45581;-66
2021/07/17 07:45:45;;;;;;;;;26.00;19.75;;;;;19.84;65.05;102279.81;5005744;28;45913;-64
2021/07/17 07:48:10;;;;;;;;;22.00;20.50;;;;;19.94;64.97;102276.94;5006205;28;46151;-67
2021/07/17 07:50:35;;;;;;;;;24.50;21.25;;;;;20.03;64.50;102277.72;5004980;28;46125;-67
2021/07/17 07:53:01;;;;;;;;;26.00;20.00;;;;;20.13;64.47;102281.88;5002879;28;45972;-64
2021/07/17 07:55:27;;;;;;;;;24.00;22.00;;;;;20.26;65.09;102283.16;5004304;28;45542;-67
2021/07/17 07:57:52;;;;;;;;;24.50;20.75;;;;;20.36;64.79;102287.28;4992412;28;45895;-68
2021/07/17 08:00:18;;;;;;;;;20.75;17.25;;;;;20.47;64.94;102290.59;5012100;28;45490;-67
2021/07/17 08:02:44;;;;;;;;;24.25;18.50;;;;;20.55;64.63;102290.59;5002058;28;45545;-66
2021/07/17 08:05:10;;;;;;;;;22.25;17.75;;;;;20.61;63.87;102298.75;5003634;28;45532;-66
2021/07/17 08:07:35;;;;;;;;;26.25;22.00;;;;;20.61;63.56;102293.38;5005388;28;46691;-66
2021/07/17 08:10:02;;;;;;;;;21.25;19.00;;;;;20.59;64.43;102294.56;5004537;28;45644;-67
2021/07/17 08:12:28;;;;;;;;;27.75;23.75;;;;;20.63;63.65;102289.69;5008270;28;45526;-65
2021/07/17 08:14:53;;;;;;;;;21.00;18.75;;;;;20.65;63.55;102282.28;5004047;28;45576;-67
2021/07/17 08:17:19;;;;;;;;;19.50;19.50;;;;;20.68;63.81;102282.75;5006186;28;47271;-68
2021/07/17 08:19:44;;;;;;;;;25.25;18.75;;;;;20.78;63.64;102277.97;5003738;28;45799;-70
2021/07/17 08:22:09;;;;;;;;;25.75;20.75;;;;;20.92;63.54;102278.19;5003521;28;45540;-66
2021/07/17 08:24:35;;;;;;;;;24.00;20.00;;;;;20.99;63.05;102284.53;5009549;28;45493;-64
2021/07/17 08:27:00;;;;;;;;;24.00;20.75;;;;;21.04;62.92;102284.81;5007330;28;48035;-65
2021/07/17 08:29:26;;;;;;;;;22.25;18.75;;;;;21.06;62.48;102282.78;5005392;28;45559;-66
2021/07/17 08:31:51;;;;;;;;;21.50;18.00;;;;;21.08;62.27;102280.75;5003883;28;45446;-65
2021/07/17 08:34:16;;;;;;;;;23.25;19.00;;;;;21.11;63.17;102280.38;5006301;28;45617;-66
2021/07/17 08:36:42;;;;;;;;;20.25;19.75;;;;;21.20;63.06;102283.84;5006185;28;45441;-65
2021/07/17 08:39:07;;;;;;;;;25.25;21.00;;;;;21.34;62.58;102280.38;5007389;28;45490;-65
2021/07/17 08:41:34;;;;;;;;;36.25;22.75;;;;;21.48;61.89;102282.25;5004994;28;46260;-67
2021/07/17 08:44:01;;;;;;;;;26.00;20.75;;;;;21.57;61.50;102279.47;5004305;28;45492;-64
2021/07/17 08:46:27;;;;;;;;;23.75;20.75;;;;;21.64;62.16;102283.09;4992403;28;46095;-65
2021/07/17 08:48:55;;;;;;;;;25.00;21.75;;;;;21.76;61.87;102288.84;5004343;28;45579;-65
2021/07/17 08:51:21;;;;;;;;;29.75;21.75;;;;;21.82;61.50;102288.09;5006467;28;45580;-64
2021/07/17 08:53:48;;;;;;;;;22.25;18.50;;;;;21.86;61.57;102286.72;4960023;28;1221865;-64
2021/07/17 08:56:14;;;;;;;;;22.50;20.75;;;;;21.82;61.40;102290.81;5001666;28;46141;-67
2021/07/17 08:58:39;;;;;;;;;30.75;25.00;;;;;22.02;61.22;102282.97;5005619;28;45545;-68
2021/07/17 09:01:04;;;;;;;;;23.50;19.00;;;;;22.81;60.89;102283.03;5004059;28;45533;-64
2021/07/17 09:03:30;;;;;;;;;23.00;18.25;;;;;23.50;59.25;102276.13;5006753;28;45726;-64
2021/07/17 09:05:55;;;;;;;;;22.50;21.50;;;;;24.17;57.95;102280.03;5005982;28;46093;-67
2021/07/17 09:08:21;;;;;;;;;26.50;19.75;;;;;24.85;56.34;102269.16;5007275;28;45911;-66
2021/07/17 09:10:48;;;;;;;;;21.75;18.25;;;;;25.23;51.15;102266.69;5006315;28;45532;-66
2021/07/17 09:13:19;;;;;;;;;25.25;23.25;;;;;25.29;52.78;102268.53;5002850;28;45604;-67
2021/07/17 09:15:50;;;;;;;;;22.50;17.75;;;;;25.57;54.16;102269.31;5015458;28;45616;-67
2021/07/17 09:18:23;;;;;;;;;28.00;22.00;;;;;25.87;53.25;102259.66;5011687;28;45462;-71
2021/07/17 09:21:03;;;;;;;;;27.75;23.50;;;;;25.65;52.44;102274.50;5002509;28;46784;-68
2021/07/17 09:23:31;;;;;;;;;23.75;21.25;;;;;25.31;52.84;102258.31;5005585;28;45537;-66
2021/07/17 09:25:57;;;;;;;;;20.00;20.00;;;;;25.29;53.57;102267.69;5008950;28;45536;-68
2021/07/17 09:28:28;;;;;;;;;19.50;18.00;;;;;25.49;53.57;102265.81;5002266;28;45529;-68
2021/07/17 09:30:59;;;;;;;;;28.50;20.75;;;;;26.46;52.59;102260.41;5007161;28;45576;-69
2021/07/17 09:33:27;;;;;;;;;23.75;19.00;;;;;27.44;51.59;102253.53;5017930;28;45499;-68
2021/07/17 09:35:54;;;;;;;;;21.25;19.00;;;;;28.76;50.20;102257.44;5007220;28;45484;-69
2021/07/17 09:38:21;;;;;;;;;21.00;20.25;;;;;29.07;47.67;102254.41;4993490;28;45569;-68
2021/07/17 09:41:04;;;;;;;;;24.50;21.50;;;;;28.81;47.40;102257.53;5002233;28;45584;-69
2021/07/17 09:43:35;;;;;;;;;20.25;17.75;;;;;28.35;47.45;102256.38;5010920;28;45474;-68
2021/07/17 09:46:21;;;;;;;;;22.50;18.50;;;;;27.72;48.06;102252.16;5013018;28;46711;-69
2021/07/17 09:48:55;;;;;;;;;21.25;16.25;;;;;27.11;48.41;102262.81;5005712;28;45809;-69
2021/07/17 09:51:24;;;;;;;;;21.00;19.00;;;;;26.63;48.99;102260.69;5009374;28;45517;-68
2021/07/17 09:54:00;;;;;;;;;23.00;20.50;;;;;26.17;49.23;102262.63;5008502;28;46071;-72
2021/07/17 09:56:29;;;;;;;;;21.50;16.75;;;;;25.83;49.59;102255.69;4999270;28;47038;-70
2021/07/17 09:58:58;;;;;;;;;18.25;16.50;;;;;25.49;50.73;102257.69;5006015;28;45526;-69
2021/07/17 10:01:41;;;;;;;;;18.25;15.25;;;;;25.26;50.50;102266.25;5009572;28;45500;-73
2021/07/17 10:04:12;;;;;;;;;16.75;14.50;;;;;24.94;49.14;102267.06;5002443;28;45536;-72
2021/07/17 10:06:41;;;;;;;;;19.00;16.25;;;;;24.51;48.98;102262.06;5005099;28;46077;-69
2021/07/17 10:09:12;;;;;;;;;16.00;13.25;;;;;24.03;51.62;102263.78;5012305;28;45430;-72
2021/07/17 10:11:39;;;;;;;;;22.75;19.00;;;;;23.90;53.04;102266.41;5013279;28;45491;-69
2021/07/17 10:14:18;;;;;;;;;20.25;17.50;;;;;23.88;53.24;102267.66;5007614;28;45580;-74
2021/07/17 10:16:45;;;;;;;;;18.75;18.75;;;;;23.82;53.28;102270.13;5005872;28;45604;-68
2021/07/17 10:19:14;;;;;;;;;18.75;17.50;;;;;23.79;53.63;102269.69;4997515;28;46064;-69
2021/07/17 10:21:40;;;;;;;;;20.00;17.50;;;;;23.70;52.90;102273.56;5007008;28;45725;-66
2021/07/17 10:24:06;;;;;;;;;21.00;18.75;;;;;23.59;54.30;102264.16;4999901;28;45569;-66
2021/07/17 10:26:31;;;;;;;;;19.25;16.25;;;;;23.63;53.74;102265.41;5005089;28;46154;-69
2021/07/17 10:29:04;;;;;;;;;18.25;16.00;;;;;23.70;54.03;102265.47;4999387;28;45490;-68
2021/07/17 10:31:30;;;;;;;;;20.25;16.50;;;;;23.74;53.68;102256.78;4995840;28;45582;-67
2021/07/17 10:33:55;;;;;;;;;22.00;16.75;;;;;23.71;54.11;102251.75;5002825;28;45534;-68
2021/07/17 10:36:23;;;;;;;;;19.00;16.00;;;;;23.70;54.60;102260.88;5003129;28;47420;-67
2021/07/17 10:38:54;;;;;;;;;22.75;17.75;;;;;23.79;54.13;102254.31;5001533;28;45595;-67
2021/07/17 10:41:20;;;;;;;;;22.50;18.75;;;;;23.83;54.19;102249.34;5000220;28;45593;-68
2021/07/17 10:43:51;;;;;;;;;21.75;16.25;;;;;23.88;53.24;102249.56;5000038;28;46217;-68
2021/07/17 10:46:37;;;;;;;;;23.50;21.25;;;;;24.03;54.90;102241.31;5003228;28;47183;-67
2021/07/17 10:49:06;;;;;;;;;23.75;20.25;;;;;24.24;54.13;102241.19;5001939;28;45587;-69
2021/07/17 10:51:37;;;;;;;;;24.00;19.25;;;;;24.39;53.74;102238.31;5004708;28;45561;-68
2021/07/17 10:54:10;;;;;;;;;21.50;19.25;;;;;24.54;52.91;102246.25;5002477;28;45596;-69
2021/07/17 10:56:37;;;;;;;;;19.00;17.75;;;;;24.61;52.72;102241.69;5005253;28;46180;-66
2021/07/17 10:59:11;;;;;;;;;22.50;16.25;;;;;24.61;52.71;102236.28;5003313;28;45984;-70
2021/07/17 11:01:58;;;;;;;;;22.75;18.50;;;;;24.70;52.72;102244.19;5005392;28;45562;-71
2021/07/17 11:04:50;;;;;;;;;17.50;16.25;;;;;24.77;52.59;102240.44;5002384;28;45835;-67
2021/07/17 11:07:18;;;;;;;;;20.75;19.00;;;;;24.77;52.35;102239.63;5003475;28;45527;-67